Terminal Aerodrome Forecast
Issued by NWS

Home | Current Version | Previous Version | Text Only | Print | Product List | Glossary On
Versions: 1 2 3 4 5 6 7 8 9 10 11 12 13 14 15
000
FTUS43 KEAX 280557
TAFSTJ
TAF
KSTJ 280557Z 2806/2906 03006KT P6SM OVC020
     FM280900 06004KT 4SM BR OVC015
     FM281500 09008KT P6SM OVC015
     FM282100 07011KT P6SM OVC020=

USA.gov is the U.S. government's official web portal to all federal, state and local government web resources and services.